sensor_id;sensor_type;location;lat;lon;timestamp;temperature;humidity
27492;DHT22;14927;51.210;6.838;2023-02-08T00:00:41;5.40;50.80
27492;DHT22;14927;51.210;6.838;2023-02-08T00:03:26;5.40;50.90
27492;DHT22;14927;51.210;6.838;2023-02-08T00:06:13;5.40;51.00
27492;DHT22;14927;51.210;6.838;2023-02-08T00:08:58;5.60;51.20
27492;DHT22;14927;51.210;6.838;2023-02-08T00:11:44;5.30;51.20
27492;DHT22;14927;51.210;6.838;2023-02-08T00:14:28;5.30;51.30
27492;DHT22;14927;51.210;6.838;2023-02-08T00:17:14;5.30;51.30
27492;DHT22;14927;51.210;6.838;2023-02-08T00:19:59;5.20;51.40
27492;DHT22;14927;51.210;6.838;2023-02-08T00:22:44;5.00;51.40
27492;DHT22;14927;51.210;6.838;2023-02-08T00:25:29;5.20;51.60
27492;DHT22;14927;51.210;6.838;2023-02-08T00:28:15;5.20;51.60
27492;DHT22;14927;51.210;6.838;2023-02-08T00:31:00;5.20;51.70
27492;DHT22;14927;51.210;6.838;2023-02-08T00:33:47;5.30;51.80
27492;DHT22;14927;51.210;6.838;2023-02-08T00:36:32;5.10;51.90
27492;DHT22;14927;51.210;6.838;2023-02-08T00:39:16;5.10;51.90
27492;DHT22;14927;51.210;6.838;2023-02-08T00:42:01;5.10;52.00
27492;DHT22;14927;51.210;6.838;2023-02-08T00:44:47;5.10;52.10
27492;DHT22;14927;51.210;6.838;2023-02-08T00:47:32;5.10;52.10
27492;DHT22;14927;51.210;6.838;2023-02-08T00:50:17;5.20;52.10
27492;DHT22;14927;51.210;6.838;2023-02-08T00:53:02;5.00;52.10
27492;DHT22;14927;51.210;6.838;2023-02-08T00:55:51;5.10;52.20
27492;DHT22;14927;51.210;6.838;2023-02-08T00:58:36;5.00;52.20
27492;DHT22;14927;51.210;6.838;2023-02-08T01:01:21;5.00;52.30
27492;DHT22;14927;51.210;6.838;2023-02-08T01:04:06;5.10;52.30
27492;DHT22;14927;51.210;6.838;2023-02-08T01:06:51;4.90;52.30
27492;DHT22;14927;51.210;6.838;2023-02-08T01:09:35;5.00;52.40
27492;DHT22;14927;51.210;6.838;2023-02-08T01:12:20;5.00;52.50
27492;DHT22;14927;51.210;6.838;2023-02-08T01:15:05;5.20;52.60
27492;DHT22;14927;51.210;6.838;2023-02-08T01:17:54;4.90;52.60
27492;DHT22;14927;51.210;6.838;2023-02-08T01:20:39;5.00;52.60
27492;DHT22;14927;51.210;6.838;2023-02-08T01:23:24;5.00;52.50
27492;DHT22;14927;51.210;6.838;2023-02-08T01:26:09;4.90;52.60
27492;DHT22;14927;51.210;6.838;2023-02-08T01:28:55;4.80;52.60
27492;DHT22;14927;51.210;6.838;2023-02-08T01:31:43;4.80;52.70
27492;DHT22;14927;51.210;6.838;2023-02-08T01:34:28;4.80;52.70
27492;DHT22;14927;51.210;6.838;2023-02-08T01:37:12;4.80;52.80
27492;DHT22;14927;51.210;6.838;2023-02-08T01:39:57;4.70;52.80
27492;DHT22;14927;51.210;6.838;2023-02-08T01:42:42;4.70;52.80
27492;DHT22;14927;51.210;6.838;2023-02-08T01:45:29;4.70;52.90
27492;DHT22;14927;51.210;6.838;2023-02-08T01:48:26;4.70;53.00
27492;DHT22;14927;51.210;6.838;2023-02-08T01:51:27;4.70;53.10
27492;DHT22;14927;51.210;6.838;2023-02-08T01:54:16;4.60;53.10
27492;DHT22;14927;51.210;6.838;2023-02-08T01:57:02;4.60;53.10
27492;DHT22;14927;51.210;6.838;2023-02-08T01:59:57;4.60;53.10
27492;DHT22;14927;51.210;6.838;2023-02-08T02:02:45;4.60;53.30
27492;DHT22;14927;51.210;6.838;2023-02-08T02:05:39;4.60;53.40
27492;DHT22;14927;51.210;6.838;2023-02-08T02:08:25;4.60;53.60
27492;DHT22;14927;51.210;6.838;2023-02-08T02:11:12;4.50;53.60
27492;DHT22;14927;51.210;6.838;2023-02-08T02:14:00;4.50;53.70
27492;DHT22;14927;51.210;6.838;2023-02-08T02:16:47;4.50;53.80
27492;DHT22;14927;51.210;6.838;2023-02-08T02:45:11;4.50;54.20
27492;DHT22;14927;51.210;6.838;2023-02-08T02:48:47;4.40;54.30
27492;DHT22;14927;51.210;6.838;2023-02-08T02:51:47;4.50;54.50
27492;DHT22;14927;51.210;6.838;2023-02-08T02:54:50;4.50;54.20
27492;DHT22;14927;51.210;6.838;2023-02-08T02:57:37;4.40;54.10
27492;DHT22;14927;51.210;6.838;2023-02-08T03:00:24;4.50;54.10
27492;DHT22;14927;51.210;6.838;2023-02-08T03:03:30;4.50;54.10
27492;DHT22;14927;51.210;6.838;2023-02-08T03:06:35;4.60;54.20
27492;DHT22;14927;51.210;6.838;2023-02-08T03:16:37;4.60;54.00
27492;DHT22;14927;51.210;6.838;2023-02-08T03:19:42;4.50;53.80
27492;DHT22;14927;51.210;6.838;2023-02-08T03:22:36;4.60;54.30
27492;DHT22;14927;51.210;6.838;2023-02-08T03:25:34;4.60;53.60
27492;DHT22;14927;51.210;6.838;2023-02-08T03:28:27;4.60;53.40
27492;DHT22;14927;51.210;6.838;2023-02-08T03:31:31;4.60;53.30
27492;DHT22;14927;51.210;6.838;2023-02-08T03:37:29;4.60;52.80
27492;DHT22;14927;51.210;6.838;2023-02-08T03:40:24;4.60;52.70
27492;DHT22;14927;51.210;6.838;2023-02-08T03:43:22;4.60;52.50
27492;DHT22;14927;51.210;6.838;2023-02-08T03:46:23;4.60;52.40
27492;DHT22;14927;51.210;6.838;2023-02-08T03:49:24;4.60;52.20
27492;DHT22;14927;51.210;6.838;2023-02-08T03:52:12;4.70;52.10
27492;DHT22;14927;51.210;6.838;2023-02-08T03:55:02;4.60;52.10
27492;DHT22;14927;51.210;6.838;2023-02-08T03:58:00;4.60;52.00
27492;DHT22;14927;51.210;6.838;2023-02-08T04:00:54;4.80;52.80
27492;DHT22;14927;51.210;6.838;2023-02-08T04:03:43;4.60;52.20
27492;DHT22;14927;51.210;6.838;2023-02-08T04:06:29;4.60;52.80
27492;DHT22;14927;51.210;6.838;2023-02-08T04:09:14;4.60;52.20
27492;DHT22;14927;51.210;6.838;2023-02-08T04:11:59;4.60;52.30
27492;DHT22;14927;51.210;6.838;2023-02-08T04:14:44;4.80;53.00
27492;DHT22;14927;51.210;6.838;2023-02-08T04:17:28;4.50;52.30
27492;DHT22;14927;51.210;6.838;2023-02-08T04:20:13;4.50;52.40
27492;DHT22;14927;51.210;6.838;2023-02-08T04:22:58;4.40;52.40
27492;DHT22;14927;51.210;6.838;2023-02-08T04:25:43;4.50;52.50
27492;DHT22;14927;51.210;6.838;2023-02-08T04:28:27;4.40;52.50
27492;DHT22;14927;51.210;6.838;2023-02-08T04:31:14;4.40;52.50
27492;DHT22;14927;51.210;6.838;2023-02-08T04:33:59;4.40;52.50
27492;DHT22;14927;51.210;6.838;2023-02-08T04:36:43;4.40;52.50
27492;DHT22;14927;51.210;6.838;2023-02-08T04:39:28;4.30;52.50
27492;DHT22;14927;51.210;6.838;2023-02-08T04:42:13;4.30;52.50
27492;DHT22;14927;51.210;6.838;2023-02-08T04:45:00;4.30;52.50
27492;DHT22;14927;51.210;6.838;2023-02-08T04:47:45;4.30;52.60
27492;DHT22;14927;51.210;6.838;2023-02-08T04:50:30;4.30;52.70
27492;DHT22;14927;51.210;6.838;2023-02-08T04:53:14;4.20;52.60
27492;DHT22;14927;51.210;6.838;2023-02-08T04:55:59;4.30;52.80
27492;DHT22;14927;51.210;6.838;2023-02-08T04:58:44;4.30;52.80
27492;DHT22;14927;51.210;6.838;2023-02-08T05:01:28;4.20;52.90
27492;DHT22;14927;51.210;6.838;2023-02-08T05:04:13;4.20;53.00
27492;DHT22;14927;51.210;6.838;2023-02-08T05:06:58;4.20;53.10
27492;DHT22;14927;51.210;6.838;2023-02-08T05:09:42;4.10;53.10
27492;DHT22;14927;51.210;6.838;2023-02-08T05:12:27;4.10;53.10
27492;DHT22;14927;51.210;6.838;2023-02-08T05:15:11;4.10;53.00
27492;DHT22;14927;51.210;6.838;2023-02-08T05:17:56;4.20;53.10
27492;DHT22;14927;51.210;6.838;2023-02-08T05:20:42;4.10;53.10
27492;DHT22;14927;51.210;6.838;2023-02-08T05:23:27;4.10;53.10
27492;DHT22;14927;51.210;6.838;2023-02-08T05:26:12;4.10;53.20
27492;DHT22;14927;51.210;6.838;2023-02-08T05:28:57;4.20;53.30
27492;DHT22;14927;51.210;6.838;2023-02-08T05:31:41;4.10;53.20
27492;DHT22;14927;51.210;6.838;2023-02-08T05:34:26;4.00;53.30
27492;DHT22;14927;51.210;6.838;2023-02-08T05:37:11;4.00;53.40
27492;DHT22;14927;51.210;6.838;2023-02-08T05:39:57;4.00;53.40
27492;DHT22;14927;51.210;6.838;2023-02-08T05:42:41;4.00;53.50
27492;DHT22;14927;51.210;6.838;2023-02-08T05:45:27;4.00;53.60
27492;DHT22;14927;51.210;6.838;2023-02-08T05:48:12;4.00;53.60
27492;DHT22;14927;51.210;6.838;2023-02-08T05:50:56;3.90;53.70
27492;DHT22;14927;51.210;6.838;2023-02-08T05:53:42;3.90;53.70
27492;DHT22;14927;51.210;6.838;2023-02-08T05:56:28;4.00;53.80
27492;DHT22;14927;51.210;6.838;2023-02-08T05:59:13;3.90;53.80
27492;DHT22;14927;51.210;6.838;2023-02-08T06:01:58;3.90;53.80
27492;DHT22;14927;51.210;6.838;2023-02-08T06:04:42;4.10;54.00
27492;DHT22;14927;51.210;6.838;2023-02-08T06:07:27;4.00;54.00
27492;DHT22;14927;51.210;6.838;2023-02-08T06:10:12;3.90;54.00
27492;DHT22;14927;51.210;6.838;2023-02-08T06:12:57;3.70;53.90
27492;DHT22;14927;51.210;6.838;2023-02-08T06:15:41;3.90;53.90
27492;DHT22;14927;51.210;6.838;2023-02-08T06:18:26;3.90;53.80
27492;DHT22;14927;51.210;6.838;2023-02-08T06:21:11;3.90;53.70
27492;DHT22;14927;51.210;6.838;2023-02-08T06:23:55;3.80;53.70
27492;DHT22;14927;51.210;6.838;2023-02-08T06:26:41;3.80;53.60
27492;DHT22;14927;51.210;6.838;2023-02-08T06:29:26;3.80;53.60
27492;DHT22;14927;51.210;6.838;2023-02-08T06:32:14;3.80;53.60
27492;DHT22;14927;51.210;6.838;2023-02-08T06:35:02;3.80;53.70
27492;DHT22;14927;51.210;6.838;2023-02-08T06:37:47;4.00;53.90
27492;DHT22;14927;51.210;6.838;2023-02-08T06:40:32;4.00;53.90
27492;DHT22;14927;51.210;6.838;2023-02-08T06:43:17;3.80;53.90
27492;DHT22;14927;51.210;6.838;2023-02-08T06:46:02;3.70;54.00
27492;DHT22;14927;51.210;6.838;2023-02-08T06:48:48;3.70;54.20
27492;DHT22;14927;51.210;6.838;2023-02-08T06:51:33;3.70;54.30
27492;DHT22;14927;51.210;6.838;2023-02-08T06:54:18;3.80;54.50
27492;DHT22;14927;51.210;6.838;2023-02-08T06:57:02;3.70;54.50
27492;DHT22;14927;51.210;6.838;2023-02-08T06:59:47;3.70;54.50
27492;DHT22;14927;51.210;6.838;2023-02-08T07:02:32;3.70;54.50
27492;DHT22;14927;51.210;6.838;2023-02-08T07:05:17;3.90;54.60
27492;DHT22;14927;51.210;6.838;2023-02-08T07:08:03;3.50;54.40
27492;DHT22;14927;51.210;6.838;2023-02-08T07:10:48;3.80;54.50
27492;DHT22;14927;51.210;6.838;2023-02-08T07:13:34;3.90;54.60
27492;DHT22;14927;51.210;6.838;2023-02-08T07:16:19;3.70;54.50
27492;DHT22;14927;51.210;6.838;2023-02-08T07:19:04;3.60;54.40
27492;DHT22;14927;51.210;6.838;2023-02-08T07:21:52;3.70;54.50
27492;DHT22;14927;51.210;6.838;2023-02-08T07:24:38;3.60;54.40
27492;DHT22;14927;51.210;6.838;2023-02-08T07:27:23;3.70;54.40
27492;DHT22;14927;51.210;6.838;2023-02-08T07:30:10;3.60;55.00
27492;DHT22;14927;51.210;6.838;2023-02-08T07:32:54;3.60;54.40
27492;DHT22;14927;51.210;6.838;2023-02-08T07:35:39;3.60;54.40
27492;DHT22;14927;51.210;6.838;2023-02-08T07:38:24;3.60;54.50
27492;DHT22;14927;51.210;6.838;2023-02-08T07:41:11;3.60;54.60
27492;DHT22;14927;51.210;6.838;2023-02-08T07:43:58;3.60;54.60
27492;DHT22;14927;51.210;6.838;2023-02-08T07:46:43;3.60;54.70
27492;DHT22;14927;51.210;6.838;2023-02-08T07:49:30;3.60;54.70
27492;DHT22;14927;51.210;6.838;2023-02-08T07:52:15;3.70;54.70
27492;DHT22;14927;51.210;6.838;2023-02-08T07:55:01;3.80;54.80
27492;DHT22;14927;51.210;6.838;2023-02-08T07:57:47;3.70;54.80
27492;DHT22;14927;51.210;6.838;2023-02-08T08:00:32;3.70;54.90
27492;DHT22;14927;51.210;6.838;2023-02-08T08:03:17;3.70;55.00
27492;DHT22;14927;51.210;6.838;2023-02-08T08:06:02;3.70;55.70
27492;DHT22;14927;51.210;6.838;2023-02-08T08:08:47;3.80;55.10
27492;DHT22;14927;51.210;6.838;2023-02-08T08:11:33;3.80;55.20
27492;DHT22;14927;51.210;6.838;2023-02-08T08:14:17;3.90;55.40
27492;DHT22;14927;51.210;6.838;2023-02-08T08:17:02;3.90;55.60
27492;DHT22;14927;51.210;6.838;2023-02-08T08:19:47;3.90;55.50
27492;DHT22;14927;51.210;6.838;2023-02-08T08:22:32;4.00;55.50
27492;DHT22;14927;51.210;6.838;2023-02-08T08:25:16;4.00;55.50
27492;DHT22;14927;51.210;6.838;2023-02-08T08:28:01;4.10;55.40
27492;DHT22;14927;51.210;6.838;2023-02-08T08:30:46;4.10;55.40
27492;DHT22;14927;51.210;6.838;2023-02-08T08:33:31;4.20;55.30
27492;DHT22;14927;51.210;6.838;2023-02-08T08:36:16;4.20;55.20
27492;DHT22;14927;51.210;6.838;2023-02-08T08:39:01;4.30;55.10
27492;DHT22;14927;51.210;6.838;2023-02-08T08:41:45;4.40;55.10
27492;DHT22;14927;51.210;6.838;2023-02-08T08:44:30;4.40;54.80
27492;DHT22;14927;51.210;6.838;2023-02-08T08:47:15;4.50;54.60
27492;DHT22;14927;51.210;6.838;2023-02-08T08:50:00;4.60;54.30
27492;DHT22;14927;51.210;6.838;2023-02-08T08:52:45;4.70;54.10
27492;DHT22;14927;51.210;6.838;2023-02-08T08:55:30;4.80;53.80
27492;DHT22;14927;51.210;6.838;2023-02-08T08:58:16;4.90;53.50
27492;DHT22;14927;51.210;6.838;2023-02-08T09:01:03;4.90;53.30
27492;DHT22;14927;51.210;6.838;2023-02-08T09:03:48;5.00;53.10
27492;DHT22;14927;51.210;6.838;2023-02-08T09:06:36;5.10;52.80
27492;DHT22;14927;51.210;6.838;2023-02-08T09:09:21;5.20;52.50
27492;DHT22;14927;51.210;6.838;2023-02-08T09:12:06;5.20;52.20
27492;DHT22;14927;51.210;6.838;2023-02-08T09:14:50;5.30;52.00
27492;DHT22;14927;51.210;6.838;2023-02-08T09:17:35;5.40;51.70
27492;DHT22;14927;51.210;6.838;2023-02-08T09:20:20;5.50;51.10
27492;DHT22;14927;51.210;6.838;2023-02-08T09:23:05;5.60;50.70
27492;DHT22;14927;51.210;6.838;2023-02-08T09:25:49;5.60;50.30
27492;DHT22;14927;51.210;6.838;2023-02-08T09:28:35;5.90;50.00
27492;DHT22;14927;51.210;6.838;2023-02-08T09:31:21;5.80;49.60
27492;DHT22;14927;51.210;6.838;2023-02-08T09:34:08;5.90;49.30
27492;DHT22;14927;51.210;6.838;2023-02-08T09:36:53;5.90;49.20
27492;DHT22;14927;51.210;6.838;2023-02-08T09:39:38;6.00;48.80
27492;DHT22;14927;51.210;6.838;2023-02-08T09:45:39;6.10;47.80
27492;DHT22;14927;51.210;6.838;2023-02-08T09:48:34;6.20;47.90
27492;DHT22;14927;51.210;6.838;2023-02-08T09:51:42;6.30;48.10
27492;DHT22;14927;51.210;6.838;2023-02-08T09:54:58;6.40;47.40
27492;DHT22;14927;51.210;6.838;2023-02-08T09:57:51;6.40;47.10
27492;DHT22;14927;51.210;6.838;2023-02-08T10:00:41;6.50;47.10
27492;DHT22;14927;51.210;6.838;2023-02-08T10:03:39;6.60;46.60
27492;DHT22;14927;51.210;6.838;2023-02-08T10:06:29;6.60;45.80
27492;DHT22;14927;51.210;6.838;2023-02-08T10:09:15;6.80;46.10
27492;DHT22;14927;51.210;6.838;2023-02-08T10:36:52;7.50;44.00
27492;DHT22;14927;51.210;6.838;2023-02-08T10:39:38;7.60;43.80
27492;DHT22;14927;51.210;6.838;2023-02-08T10:42:26;7.90;42.90
27492;DHT22;14927;51.210;6.838;2023-02-08T10:45:31;7.80;42.50
27492;DHT22;14927;51.210;6.838;2023-02-08T10:48:43;7.60;41.70
27492;DHT22;14927;51.210;6.838;2023-02-08T10:51:52;7.90;41.20
27492;DHT22;14927;51.210;6.838;2023-02-08T10:54:37;8.00;42.00
27492;DHT22;14927;51.210;6.838;2023-02-08T10:57:29;8.10;41.40
27492;DHT22;14927;51.210;6.838;2023-02-08T11:00:24;8.20;40.70
27492;DHT22;14927;51.210;6.838;2023-02-08T11:03:27;8.30;40.20
27492;DHT22;14927;51.210;6.838;2023-02-08T11:06:26;8.40;40.10
27492;DHT22;14927;51.210;6.838;2023-02-08T11:12:23;8.70;39.40
27492;DHT22;14927;51.210;6.838;2023-02-08T11:34:11;9.30;37.40
27492;DHT22;14927;51.210;6.838;2023-02-08T11:36:58;9.40;36.50
27492;DHT22;14927;51.210;6.838;2023-02-08T11:39:57;9.40;37.10
27492;DHT22;14927;51.210;6.838;2023-02-08T11:42:43;9.60;36.70
27492;DHT22;14927;51.210;6.838;2023-02-08T11:45:32;9.70;36.90
27492;DHT22;14927;51.210;6.838;2023-02-08T11:51:43;9.90;35.90
27492;DHT22;14927;51.210;6.838;2023-02-08T11:54:41;10.20;35.20
27492;DHT22;14927;51.210;6.838;2023-02-08T11:57:26;10.30;35.50
27492;DHT22;14927;51.210;6.838;2023-02-08T12:00:22;10.50;36.00
27492;DHT22;14927;51.210;6.838;2023-02-08T12:03:18;10.70;34.90
27492;DHT22;14927;51.210;6.838;2023-02-08T12:06:49;10.80;35.50
27492;DHT22;14927;51.210;6.838;2023-02-08T12:13:25;11.30;34.40
27492;DHT22;14927;51.210;6.838;2023-02-08T12:20:00;11.80;34.30
27492;DHT22;14927;51.210;6.838;2023-02-08T12:26:30;12.30;33.30
27492;DHT22;14927;51.210;6.838;2023-02-08T12:43:06;13.60;31.70
27492;DHT22;14927;51.210;6.838;2023-02-08T12:46:39;14.00;32.80
27492;DHT22;14927;51.210;6.838;2023-02-08T12:49:57;14.30;30.00
27492;DHT22;14927;51.210;6.838;2023-02-08T12:56:54;15.00;29.00
27492;DHT22;14927;51.210;6.838;2023-02-08T13:00:04;15.30;30.40
27492;DHT22;14927;51.210;6.838;2023-02-08T13:06:54;15.90;29.00
27492;DHT22;14927;51.210;6.838;2023-02-08T13:13:30;16.60;27.10
27492;DHT22;14927;51.210;6.838;2023-02-08T13:16:34;17.00;27.80
27492;DHT22;14927;51.210;6.838;2023-02-08T13:22:33;17.50;26.40
27492;DHT22;14927;51.210;6.838;2023-02-08T13:25:37;17.80;26.50
27492;DHT22;14927;51.210;6.838;2023-02-08T13:28:34;18.20;24.80
27492;DHT22;14927;51.210;6.838;2023-02-08T13:31:29;18.50;25.50
27492;DHT22;14927;51.210;6.838;2023-02-08T13:34:18;18.90;25.10
27492;DHT22;14927;51.210;6.838;2023-02-08T13:37:22;19.20;25.60
27492;DHT22;14927;51.210;6.838;2023-02-08T13:40:25;19.50;24.00
27492;DHT22;14927;51.210;6.838;2023-02-08T13:43:31;19.80;23.10
27492;DHT22;14927;51.210;6.838;2023-02-08T13:46:22;19.80;22.60
27492;DHT22;14927;51.210;6.838;2023-02-08T13:49:44;20.40;23.90
27492;DHT22;14927;51.210;6.838;2023-02-08T13:58:35;21.20;22.60
27492;DHT22;14927;51.210;6.838;2023-02-08T14:01:34;21.50;21.20
27492;DHT22;14927;51.210;6.838;2023-02-08T14:04:35;21.70;22.30
27492;DHT22;14927;51.210;6.838;2023-02-08T14:12:59;22.10;20.70
27492;DHT22;14927;51.210;6.838;2023-02-08T14:16:28;22.00;19.80
27492;DHT22;14927;51.210;6.838;2023-02-08T14:19:23;21.90;19.00
27492;DHT22;14927;51.210;6.838;2023-02-08T14:25:16;21.70;20.40
27492;DHT22;14927;51.210;6.838;2023-02-08T14:33:34;21.20;19.50
27492;DHT22;14927;51.210;6.838;2023-02-08T14:36:30;20.90;18.80
27492;DHT22;14927;51.210;6.838;2023-02-08T14:39:24;20.60;18.80
27492;DHT22;14927;51.210;6.838;2023-02-08T14:42:52;20.30;19.10
27492;DHT22;14927;51.210;6.838;2023-02-08T14:45:48;19.90;18.80
27492;DHT22;14927;51.210;6.838;2023-02-08T14:48:44;19.50;19.90
27492;DHT22;14927;51.210;6.838;2023-02-08T14:51:33;19.30;19.60
27492;DHT22;14927;51.210;6.838;2023-02-08T14:54:38;19.00;20.20
27492;DHT22;14927;51.210;6.838;2023-02-08T14:57:31;18.50;19.90
27492;DHT22;14927;51.210;6.838;2023-02-08T15:00:22;18.40;20.40
27492;DHT22;14927;51.210;6.838;2023-02-08T15:03:18;18.20;20.50
27492;DHT22;14927;51.210;6.838;2023-02-08T15:09:28;17.70;20.30
27492;DHT22;14927;51.210;6.838;2023-02-08T15:12:24;17.40;21.00
27492;DHT22;14927;51.210;6.838;2023-02-08T15:18:16;17.10;22.60
27492;DHT22;14927;51.210;6.838;2023-02-08T15:21:06;16.90;21.90
27492;DHT22;14927;51.210;6.838;2023-02-08T15:24:17;16.70;21.90
27492;DHT22;14927;51.210;6.838;2023-02-08T15:27:21;16.50;21.60
27492;DHT22;14927;51.210;6.838;2023-02-08T15:30:34;16.40;21.80
27492;DHT22;14927;51.210;6.838;2023-02-08T15:33:21;16.10;21.90
27492;DHT22;14927;51.210;6.838;2023-02-08T15:36:13;16.00;22.50
27492;DHT22;14927;51.210;6.838;2023-02-08T15:39:03;15.60;22.30
27492;DHT22;14927;51.210;6.838;2023-02-08T15:42:32;15.80;22.50
27492;DHT22;14927;51.210;6.838;2023-02-08T15:45:26;15.60;22.20
27492;DHT22;14927;51.210;6.838;2023-02-08T15:48:13;15.50;22.50
27492;DHT22;14927;51.210;6.838;2023-02-08T15:51:01;15.40;22.80
27492;DHT22;14927;51.210;6.838;2023-02-08T15:53:48;15.30;22.80
27492;DHT22;14927;51.210;6.838;2023-02-08T15:56:36;15.20;22.80
27492;DHT22;14927;51.210;6.838;2023-02-08T15:59:26;15.00;23.00
27492;DHT22;14927;51.210;6.838;2023-02-08T16:05:20;14.90;23.00
27492;DHT22;14927;51.210;6.838;2023-02-08T16:08:17;14.80;23.20
27492;DHT22;14927;51.210;6.838;2023-02-08T16:11:18;14.70;23.10
27492;DHT22;14927;51.210;6.838;2023-02-08T16:14:12;14.60;23.20
27492;DHT22;14927;51.210;6.838;2023-02-08T16:16:58;14.50;23.60
27492;DHT22;14927;51.210;6.838;2023-02-08T16:22:28;14.30;23.90
27492;DHT22;14927;51.210;6.838;2023-02-08T16:25:43;14.20;23.80
27492;DHT22;14927;51.210;6.838;2023-02-08T16:28:31;14.10;23.70
27492;DHT22;14927;51.210;6.838;2023-02-08T16:31:23;14.00;24.10
27492;DHT22;14927;51.210;6.838;2023-02-08T16:34:19;13.90;24.10
27492;DHT22;14927;51.210;6.838;2023-02-08T16:37:34;13.80;24.20
27492;DHT22;14927;51.210;6.838;2023-02-08T16:40:42;13.70;24.50
27492;DHT22;14927;51.210;6.838;2023-02-08T16:43:32;13.60;24.50
27492;DHT22;14927;51.210;6.838;2023-02-08T16:46:20;13.50;24.80
27492;DHT22;14927;51.210;6.838;2023-02-08T16:49:09;13.40;24.90
27492;DHT22;14927;51.210;6.838;2023-02-08T16:51:58;13.30;25.10
27492;DHT22;14927;51.210;6.838;2023-02-08T16:54:43;13.20;25.10
27492;DHT22;14927;51.210;6.838;2023-02-08T16:57:46;13.20;25.50
27492;DHT22;14927;51.210;6.838;2023-02-08T17:00:34;13.10;26.00
27492;DHT22;14927;51.210;6.838;2023-02-08T17:03:19;13.00;26.20
27492;DHT22;14927;51.210;6.838;2023-02-08T17:06:04;12.90;26.30
27492;DHT22;14927;51.210;6.838;2023-02-08T17:08:48;12.80;26.30
27492;DHT22;14927;51.210;6.838;2023-02-08T17:11:34;12.70;26.40
27492;DHT22;14927;51.210;6.838;2023-02-08T17:14:19;12.60;26.30
27492;DHT22;14927;51.210;6.838;2023-02-08T17:17:04;12.50;26.60
27492;DHT22;14927;51.210;6.838;2023-02-08T17:19:49;12.50;26.70
27492;DHT22;14927;51.210;6.838;2023-02-08T17:22:35;12.40;26.70
27492;DHT22;14927;51.210;6.838;2023-02-08T17:25:23;12.30;26.80
27492;DHT22;14927;51.210;6.838;2023-02-08T17:28:15;12.30;26.90
27492;DHT22;14927;51.210;6.838;2023-02-08T17:31:03;12.20;26.90
27492;DHT22;14927;51.210;6.838;2023-02-08T17:33:51;12.40;27.20
27492;DHT22;14927;51.210;6.838;2023-02-08T17:56:19;11.70;27.10
27492;DHT22;14927;51.210;6.838;2023-02-08T17:59:08;11.60;27.30
27492;DHT22;14927;51.210;6.838;2023-02-08T18:01:53;11.60;27.50
27492;DHT22;14927;51.210;6.838;2023-02-08T18:04:38;11.50;27.50
27492;DHT22;14927;51.210;6.838;2023-02-08T18:07:26;11.50;27.60
27492;DHT22;14927;51.210;6.838;2023-02-08T18:10:15;11.40;27.70
27492;DHT22;14927;51.210;6.838;2023-02-08T18:13:00;11.30;27.70
27492;DHT22;14927;51.210;6.838;2023-02-08T18:15:45;11.30;27.80
27492;DHT22;14927;51.210;6.838;2023-02-08T18:18:36;11.30;27.80
27492;DHT22;14927;51.210;6.838;2023-02-08T18:21:25;11.00;27.80
27492;DHT22;14927;51.210;6.838;2023-02-08T18:24:19;11.10;27.90
27492;DHT22;14927;51.210;6.838;2023-02-08T18:27:04;11.10;28.00
27492;DHT22;14927;51.210;6.838;2023-02-08T18:29:50;10.90;28.10
27492;DHT22;14927;51.210;6.838;2023-02-08T18:32:38;11.00;28.20
27492;DHT22;14927;51.210;6.838;2023-02-08T18:35:23;11.00;28.40
27492;DHT22;14927;51.210;6.838;2023-02-08T18:38:08;11.00;28.50
27492;DHT22;14927;51.210;6.838;2023-02-08T18:40:53;10.80;28.50
27492;DHT22;14927;51.210;6.838;2023-02-08T18:43:42;10.80;28.70
27492;DHT22;14927;51.210;6.838;2023-02-08T18:46:28;10.70;28.80
27492;DHT22;14927;51.210;6.838;2023-02-08T18:49:17;10.60;28.70
27492;DHT22;14927;51.210;6.838;2023-02-08T18:52:09;10.60;28.90
27492;DHT22;14927;51.210;6.838;2023-02-08T18:54:54;10.50;29.10
27492;DHT22;14927;51.210;6.838;2023-02-08T18:57:39;10.40;29.20
27492;DHT22;14927;51.210;6.838;2023-02-08T19:00:24;10.40;29.30
27492;DHT22;14927;51.210;6.838;2023-02-08T19:03:10;10.00;29.20
27492;DHT22;14927;51.210;6.838;2023-02-08T19:35:37;9.70;30.10
27492;DHT22;14927;51.210;6.838;2023-02-08T19:38:22;9.60;30.20
27492;DHT22;14927;51.210;6.838;2023-02-08T19:41:13;9.80;30.50
27492;DHT22;14927;51.210;6.838;2023-02-08T19:44:10;9.50;30.30
27492;DHT22;14927;51.210;6.838;2023-02-08T19:46:58;9.30;30.30
27492;DHT22;14927;51.210;6.838;2023-02-08T19:49:42;9.50;30.50
27492;DHT22;14927;51.210;6.838;2023-02-08T19:52:28;9.50;30.60
27492;DHT22;14927;51.210;6.838;2023-02-08T19:55:15;9.40;30.60
27492;DHT22;14927;51.210;6.838;2023-02-08T19:58:00;9.30;30.70
27492;DHT22;14927;51.210;6.838;2023-02-08T20:00:45;9.30;30.80
27492;DHT22;14927;51.210;6.838;2023-02-08T20:03:37;9.10;30.80
27492;DHT22;14927;51.210;6.838;2023-02-08T20:06:32;9.10;31.00
27492;DHT22;14927;51.210;6.838;2023-02-08T20:09:19;9.20;31.30
27492;DHT22;14927;51.210;6.838;2023-02-08T20:17:27;9.00;31.40
27492;DHT22;14927;51.210;6.838;2023-02-08T20:20:11;9.00;31.50
27492;DHT22;14927;51.210;6.838;2023-02-08T20:22:56;9.20;31.70
27492;DHT22;14927;51.210;6.838;2023-02-08T20:25:41;8.90;31.70
27492;DHT22;14927;51.210;6.838;2023-02-08T20:28:26;9.10;31.80
27492;DHT22;14927;51.210;6.838;2023-02-08T20:31:19;8.80;31.70
27492;DHT22;14927;51.210;6.838;2023-02-08T20:34:33;8.70;31.70
27492;DHT22;14927;51.210;6.838;2023-02-08T20:38:10;8.90;32.00
27492;DHT22;14927;51.210;6.838;2023-02-08T20:41:02;8.70;31.90
27492;DHT22;14927;51.210;6.838;2023-02-08T20:43:58;8.50;31.80
27492;DHT22;14927;51.210;6.838;2023-02-08T20:46:49;8.60;31.90
27492;DHT22;14927;51.210;6.838;2023-02-08T20:49:38;8.60;32.00
27492;DHT22;14927;51.210;6.838;2023-02-08T20:52:33;8.60;32.00
27492;DHT22;14927;51.210;6.838;2023-02-08T20:55:46;8.60;32.10
27492;DHT22;14927;51.210;6.838;2023-02-08T20:58:42;8.40;32.10
27492;DHT22;14927;51.210;6.838;2023-02-08T21:01:31;8.60;32.30
27492;DHT22;14927;51.210;6.838;2023-02-08T21:04:19;8.70;32.40
27492;DHT22;14927;51.210;6.838;2023-02-08T21:07:09;8.40;32.40
27492;DHT22;14927;51.210;6.838;2023-02-08T21:09:56;8.40;32.50
27492;DHT22;14927;51.210;6.838;2023-02-08T21:12:41;8.30;32.60
27492;DHT22;14927;51.210;6.838;2023-02-08T21:15:26;8.30;32.70
27492;DHT22;14927;51.210;6.838;2023-02-08T21:18:11;8.20;32.70
27492;DHT22;14927;51.210;6.838;2023-02-08T21:20:56;8.40;32.80
27492;DHT22;14927;51.210;6.838;2023-02-08T21:23:42;8.20;32.80
27492;DHT22;14927;51.210;6.838;2023-02-08T21:26:27;8.10;32.80
27492;DHT22;14927;51.210;6.838;2023-02-08T21:29:30;8.10;32.90
27492;DHT22;14927;51.210;6.838;2023-02-08T21:32:18;8.10;33.20
27492;DHT22;14927;51.210;6.838;2023-02-08T21:35:03;8.10;33.20
27492;DHT22;14927;51.210;6.838;2023-02-08T21:37:48;8.10;33.20
27492;DHT22;14927;51.210;6.838;2023-02-08T21:40:32;8.10;33.30
27492;DHT22;14927;51.210;6.838;2023-02-08T21:43:20;8.00;33.30